CheckWX is a tool to help pilots better visualize weather data.  It is not intended as a substitute for an official pre-flight weather briefing.

21:04:03 UTC

KIRS METAR
Kirsch Municipal Airport
Sturgis, Michigan, USA
Current

9 mins ago

KIRS 232055Z AUTO 15009KT 10SM OVC013 06/02 A2985 RMK AO2 T00550015
Observed
Feb-23 @ 20:55 UTC
Wind
  • 150° at 9 KTS
Visibility
10 SM
Flight Rules
MVFR
Cloud Levels
  • Overcast at 1,300' AGL
Temperature
C / 43°F
Dewpoint
C / 36°F
Humidity
76%
Altimeter
29.85" Hg
Pressure
1010.82 hPa
Previous

29 mins ago

KIRS 232035Z AUTO 14009KT 10SM OVC013 06/02 A2985 RMK AO2 T00570016
Observed
Feb-23 @ 20:35 UTC
Wind
  • 140° at 9 KTS
Visibility
10 SM
Flight Rules
MVFR
Cloud Levels
  • Overcast at 1,300' AGL
Temperature
C / 43°F
Dewpoint
C / 36°F
Humidity
76%
Altimeter
29.85" Hg
Pressure
1010.82 hPa
Previous

48 mins ago

KIRS 232016Z AUTO 12006KT 10SM OVC015 06/01 A2986 RMK AO2 T00570013
Observed
Feb-23 @ 20:16 UTC
Wind
  • 120° at 6 KTS
Visibility
10 SM
Flight Rules
MVFR
Cloud Levels
  • Overcast at 1,500' AGL
Temperature
C / 43°F
Dewpoint
C / 34°F
Humidity
71%
Altimeter
29.86" Hg
Pressure
1011.22 hPa